sensor_id;sensor_type;location;lat;lon;timestamp;P1;durP1;ratioP1;P2;durP2;ratioP2
51467;SDS011;37545;45.302;-122.946;2023-04-24T00:00:55;9.25;;;2.47;;
51467;SDS011;37545;45.302;-122.946;2023-04-24T00:03:26;12.10;;;2.55;;
51467;SDS011;37545;45.302;-122.946;2023-04-24T00:05:56;9.93;;;2.20;;
51467;SDS011;37545;45.302;-122.946;2023-04-24T00:08:24;6.22;;;1.65;;
51467;SDS011;37545;45.302;-122.946;2023-04-24T00:10:53;5.95;;;1.95;;
51467;SDS011;37545;45.302;-122.946;2023-04-24T00:13:21;16.35;;;2.10;;
51467;SDS011;37545;45.302;-122.946;2023-04-24T00:15:50;8.50;;;2.38;;
51467;SDS011;37545;45.302;-122.946;2023-04-24T00:18:21;4.85;;;1.50;;
51467;SDS011;37545;45.302;-122.946;2023-04-24T00:20:49;5.97;;;1.85;;
51467;SDS011;37545;45.302;-122.946;2023-04-24T00:23:18;7.00;;;2.65;;
51467;SDS011;37545;45.302;-122.946;2023-04-24T00:25:46;8.10;;;2.38;;
51467;SDS011;37545;45.302;-122.946;2023-04-24T00:28:15;4.25;;;1.40;;
51467;SDS011;37545;45.302;-122.946;2023-04-24T00:30:44;6.80;;;1.95;;
51467;SDS011;37545;45.302;-122.946;2023-04-24T00:33:13;6.18;;;1.95;;
51467;SDS011;37545;45.302;-122.946;2023-04-24T00:35:43;4.68;;;1.27;;
51467;SDS011;37545;45.302;-122.946;2023-04-24T00:38:12;7.10;;;1.85;;
51467;SDS011;37545;45.302;-122.946;2023-04-24T00:40:41;6.13;;;1.90;;
51467;SDS011;37545;45.302;-122.946;2023-04-24T00:43:09;4.88;;;1.73;;
51467;SDS011;37545;45.302;-122.946;2023-04-24T00:45:38;4.50;;;1.48;;
51467;SDS011;37545;45.302;-122.946;2023-04-24T00:48:07;4.55;;;1.20;;
51467;SDS011;37545;45.302;-122.946;2023-04-24T00:50:36;5.78;;;1.35;;
51467;SDS011;37545;45.302;-122.946;2023-04-24T00:53:07;4.97;;;1.38;;
51467;SDS011;37545;45.302;-122.946;2023-04-24T00:55:35;5.97;;;2.00;;
51467;SDS011;37545;45.302;-122.946;2023-04-24T00:58:04;7.35;;;1.85;;
51467;SDS011;37545;45.302;-122.946;2023-04-24T01:00:33;2.92;;;1.05;;
51467;SDS011;37545;45.302;-122.946;2023-04-24T01:03:34;3.97;;;1.50;;
51467;SDS011;37545;45.302;-122.946;2023-04-24T01:06:09;5.90;;;1.20;;
51467;SDS011;37545;45.302;-122.946;2023-04-24T01:08:39;3.17;;;1.17;;
51467;SDS011;37545;45.302;-122.946;2023-04-24T01:11:09;3.60;;;1.20;;
51467;SDS011;37545;45.302;-122.946;2023-04-24T01:13:37;5.72;;;1.70;;
51467;SDS011;37545;45.302;-122.946;2023-04-24T01:16:07;7.68;;;1.85;;
51467;SDS011;37545;45.302;-122.946;2023-04-24T01:18:37;4.13;;;1.63;;
51467;SDS011;37545;45.302;-122.946;2023-04-24T01:21:06;3.70;;;1.55;;
51467;SDS011;37545;45.302;-122.946;2023-04-24T01:23:38;4.65;;;1.23;;
51467;SDS011;37545;45.302;-122.946;2023-04-24T01:26:07;6.15;;;1.17;;
51467;SDS011;37545;45.302;-122.946;2023-04-24T01:28:36;4.95;;;1.30;;
51467;SDS011;37545;45.302;-122.946;2023-04-24T01:31:05;10.77;;;1.48;;
51467;SDS011;37545;45.302;-122.946;2023-04-24T01:33:33;4.40;;;1.27;;
51467;SDS011;37545;45.302;-122.946;2023-04-24T01:36:02;8.00;;;1.30;;
51467;SDS011;37545;45.302;-122.946;2023-04-24T01:38:32;6.78;;;1.27;;
51467;SDS011;37545;45.302;-122.946;2023-04-24T01:41:02;3.40;;;1.30;;
51467;SDS011;37545;45.302;-122.946;2023-04-24T01:43:31;7.10;;;1.63;;
51467;SDS011;37545;45.302;-122.946;2023-04-24T01:46:00;6.20;;;1.52;;
51467;SDS011;37545;45.302;-122.946;2023-04-24T01:48:29;4.85;;;1.00;;
51467;SDS011;37545;45.302;-122.946;2023-04-24T01:50:58;6.40;;;0.90;;
51467;SDS011;37545;45.302;-122.946;2023-04-24T01:53:28;2.35;;;1.70;;
51467;SDS011;37545;45.302;-122.946;2023-04-24T01:55:56;3.58;;;2.03;;
51467;SDS011;37545;45.302;-122.946;2023-04-24T01:58:27;6.32;;;1.50;;
51467;SDS011;37545;45.302;-122.946;2023-04-24T02:00:56;4.03;;;1.08;;
51467;SDS011;37545;45.302;-122.946;2023-04-24T02:03:25;4.93;;;1.10;;
51467;SDS011;37545;45.302;-122.946;2023-04-24T02:05:54;7.57;;;1.55;;
51467;SDS011;37545;45.302;-122.946;2023-04-24T02:08:22;3.97;;;1.10;;
51467;SDS011;37545;45.302;-122.946;2023-04-24T02:10:51;2.90;;;1.23;;
51467;SDS011;37545;45.302;-122.946;2023-04-24T02:13:20;3.17;;;1.10;;
51467;SDS011;37545;45.302;-122.946;2023-04-24T02:15:50;4.00;;;1.17;;
51467;SDS011;37545;45.302;-122.946;2023-04-24T02:18:19;6.72;;;1.52;;
51467;SDS011;37545;45.302;-122.946;2023-04-24T02:20:48;3.63;;;1.30;;
51467;SDS011;37545;45.302;-122.946;2023-04-24T02:23:17;3.25;;;1.20;;
51467;SDS011;37545;45.302;-122.946;2023-04-24T02:25:45;5.22;;;1.80;;
51467;SDS011;37545;45.302;-122.946;2023-04-24T02:28:14;2.25;;;1.20;;
51467;SDS011;37545;45.302;-122.946;2023-04-24T02:30:43;4.93;;;1.50;;
51467;SDS011;37545;45.302;-122.946;2023-04-24T02:33:13;3.05;;;1.33;;
51467;SDS011;37545;45.302;-122.946;2023-04-24T02:35:42;6.63;;;1.55;;
51467;SDS011;37545;45.302;-122.946;2023-04-24T02:38:10;6.45;;;1.48;;
51467;SDS011;37545;45.302;-122.946;2023-04-24T02:40:39;2.42;;;1.00;;
51467;SDS011;37545;45.302;-122.946;2023-04-24T02:43:08;6.22;;;1.35;;
51467;SDS011;37545;45.302;-122.946;2023-04-24T02:45:36;1.35;;;1.17;;
51467;SDS011;37545;45.302;-122.946;2023-04-24T02:48:05;3.60;;;1.42;;
51467;SDS011;37545;45.302;-122.946;2023-04-24T02:50:35;8.13;;;2.05;;
51467;SDS011;37545;45.302;-122.946;2023-04-24T02:53:04;8.45;;;1.92;;
51467;SDS011;37545;45.302;-122.946;2023-04-24T02:55:32;5.05;;;1.27;;
51467;SDS011;37545;45.302;-122.946;2023-04-24T02:58:01;4.03;;;1.33;;
51467;SDS011;37545;45.302;-122.946;2023-04-24T03:00:30;6.30;;;1.75;;
51467;SDS011;37545;45.302;-122.946;2023-04-24T03:02:58;7.25;;;1.52;;
51467;SDS011;37545;45.302;-122.946;2023-04-24T03:05:27;6.55;;;1.85;;
51467;SDS011;37545;45.302;-122.946;2023-04-24T03:07:58;5.55;;;1.38;;
51467;SDS011;37545;45.302;-122.946;2023-04-24T03:10:27;6.15;;;1.30;;
51467;SDS011;37545;45.302;-122.946;2023-04-24T03:12:55;6.88;;;1.98;;
51467;SDS011;37545;45.302;-122.946;2023-04-24T03:15:24;6.95;;;2.22;;
51467;SDS011;37545;45.302;-122.946;2023-04-24T03:17:53;6.07;;;1.92;;
51467;SDS011;37545;45.302;-122.946;2023-04-24T03:20:22;8.20;;;2.00;;
51467;SDS011;37545;45.302;-122.946;2023-04-24T03:22:51;6.38;;;2.05;;
51467;SDS011;37545;45.302;-122.946;2023-04-24T03:25:21;7.00;;;2.00;;
51467;SDS011;37545;45.302;-122.946;2023-04-24T03:27:50;5.70;;;1.60;;
51467;SDS011;37545;45.302;-122.946;2023-04-24T03:30:20;3.83;;;1.98;;
51467;SDS011;37545;45.302;-122.946;2023-04-24T03:32:49;3.47;;;1.40;;
51467;SDS011;37545;45.302;-122.946;2023-04-24T03:35:17;7.78;;;1.85;;
51467;SDS011;37545;45.302;-122.946;2023-04-24T03:37:46;7.18;;;1.77;;
51467;SDS011;37545;45.302;-122.946;2023-04-24T03:40:15;9.80;;;2.63;;
51467;SDS011;37545;45.302;-122.946;2023-04-24T03:42:46;4.05;;;1.67;;
51467;SDS011;37545;45.302;-122.946;2023-04-24T03:45:14;6.22;;;1.80;;
51467;SDS011;37545;45.302;-122.946;2023-04-24T03:47:43;3.28;;;1.48;;
51467;SDS011;37545;45.302;-122.946;2023-04-24T03:50:12;3.83;;;1.30;;
51467;SDS011;37545;45.302;-122.946;2023-04-24T03:52:40;5.00;;;1.70;;
51467;SDS011;37545;45.302;-122.946;2023-04-24T03:55:09;6.18;;;1.80;;
51467;SDS011;37545;45.302;-122.946;2023-04-24T03:57:38;4.47;;;1.58;;
51467;SDS011;37545;45.302;-122.946;2023-04-24T04:00:09;7.32;;;1.50;;
51467;SDS011;37545;45.302;-122.946;2023-04-24T04:02:40;6.57;;;1.30;;
51467;SDS011;37545;45.302;-122.946;2023-04-24T04:05:09;4.50;;;1.58;;
51467;SDS011;37545;45.302;-122.946;2023-04-24T04:07:37;8.88;;;1.77;;
51467;SDS011;37545;45.302;-122.946;2023-04-24T04:10:06;4.95;;;1.50;;
51467;SDS011;37545;45.302;-122.946;2023-04-24T04:12:35;7.70;;;1.60;;
51467;SDS011;37545;45.302;-122.946;2023-04-24T04:15:04;3.10;;;1.65;;
51467;SDS011;37545;45.302;-122.946;2023-04-24T04:17:35;6.38;;;1.65;;
51467;SDS011;37545;45.302;-122.946;2023-04-24T04:20:04;4.57;;;1.67;;
51467;SDS011;37545;45.302;-122.946;2023-04-24T04:22:35;12.05;;;2.80;;
51467;SDS011;37545;45.302;-122.946;2023-04-24T04:25:04;9.05;;;1.77;;
51467;SDS011;37545;45.302;-122.946;2023-04-24T04:27:34;5.35;;;1.55;;
51467;SDS011;37545;45.302;-122.946;2023-04-24T04:30:03;5.47;;;1.23;;
51467;SDS011;37545;45.302;-122.946;2023-04-24T04:32:32;3.90;;;1.48;;
51467;SDS011;37545;45.302;-122.946;2023-04-24T04:35:03;7.88;;;1.63;;
51467;SDS011;37545;45.302;-122.946;2023-04-24T04:37:32;6.53;;;1.98;;
51467;SDS011;37545;45.302;-122.946;2023-04-24T04:40:01;7.13;;;1.55;;
51467;SDS011;37545;45.302;-122.946;2023-04-24T04:42:33;2.07;;;1.53;;
51467;SDS011;37545;45.302;-122.946;2023-04-24T04:45:02;5.28;;;1.52;;
51467;SDS011;37545;45.302;-122.946;2023-04-24T04:47:31;5.75;;;1.73;;
51467;SDS011;37545;45.302;-122.946;2023-04-24T04:50:02;4.25;;;1.35;;
51467;SDS011;37545;45.302;-122.946;2023-04-24T04:52:31;9.75;;;2.25;;
51467;SDS011;37545;45.302;-122.946;2023-04-24T04:54:59;5.35;;;1.42;;
51467;SDS011;37545;45.302;-122.946;2023-04-24T04:57:28;6.20;;;1.40;;
51467;SDS011;37545;45.302;-122.946;2023-04-24T04:59:57;5.45;;;1.20;;
51467;SDS011;37545;45.302;-122.946;2023-04-24T05:02:26;7.70;;;1.45;;
51467;SDS011;37545;45.302;-122.946;2023-04-24T05:04:54;3.35;;;0.88;;
51467;SDS011;37545;45.302;-122.946;2023-04-24T05:07:25;4.40;;;1.38;;
51467;SDS011;37545;45.302;-122.946;2023-04-24T05:09:53;1.98;;;1.10;;
51467;SDS011;37545;45.302;-122.946;2023-04-24T05:12:22;6.05;;;1.40;;
51467;SDS011;37545;45.302;-122.946;2023-04-24T05:14:51;6.03;;;1.13;;
51467;SDS011;37545;45.302;-122.946;2023-04-24T05:17:20;8.50;;;1.35;;
51467;SDS011;37545;45.302;-122.946;2023-04-24T05:19:48;9.38;;;1.48;;
51467;SDS011;37545;45.302;-122.946;2023-04-24T05:22:17;8.50;;;1.33;;
51467;SDS011;37545;45.302;-122.946;2023-04-24T05:24:48;7.18;;;1.83;;
51467;SDS011;37545;45.302;-122.946;2023-04-24T05:27:16;3.45;;;1.25;;
51467;SDS011;37545;45.302;-122.946;2023-04-24T05:29:45;5.13;;;1.35;;
51467;SDS011;37545;45.302;-122.946;2023-04-24T05:32:14;6.05;;;1.33;;
51467;SDS011;37545;45.302;-122.946;2023-04-24T05:34:43;5.57;;;1.00;;
51467;SDS011;37545;45.302;-122.946;2023-04-24T05:37:12;3.90;;;1.17;;
51467;SDS011;37545;45.302;-122.946;2023-04-24T05:39:40;2.20;;;1.20;;
51467;SDS011;37545;45.302;-122.946;2023-04-24T05:42:11;1.23;;;0.88;;
51467;SDS011;37545;45.302;-122.946;2023-04-24T05:44:39;2.85;;;1.20;;
51467;SDS011;37545;45.302;-122.946;2023-04-24T05:47:08;2.92;;;0.90;;
51467;SDS011;37545;45.302;-122.946;2023-04-24T05:49:37;2.47;;;1.40;;
51467;SDS011;37545;45.302;-122.946;2023-04-24T05:52:06;2.83;;;1.25;;
51467;SDS011;37545;45.302;-122.946;2023-04-24T05:54:34;5.95;;;1.30;;
51467;SDS011;37545;45.302;-122.946;2023-04-24T05:57:03;3.28;;;1.13;;
51467;SDS011;37545;45.302;-122.946;2023-04-24T05:59:36;4.15;;;1.20;;
51467;SDS011;37545;45.302;-122.946;2023-04-24T06:02:05;2.55;;;1.02;;
51467;SDS011;37545;45.302;-122.946;2023-04-24T06:04:34;3.50;;;1.10;;
51467;SDS011;37545;45.302;-122.946;2023-04-24T06:07:02;2.70;;;1.20;;
51467;SDS011;37545;45.302;-122.946;2023-04-24T06:09:31;3.25;;;1.40;;
51467;SDS011;37545;45.302;-122.946;2023-04-24T06:12:00;3.85;;;1.20;;
51467;SDS011;37545;45.302;-122.946;2023-04-24T06:14:29;5.55;;;1.17;;
51467;SDS011;37545;45.302;-122.946;2023-04-24T06:17:00;3.83;;;1.02;;
51467;SDS011;37545;45.302;-122.946;2023-04-24T06:19:29;2.38;;;1.15;;
51467;SDS011;37545;45.302;-122.946;2023-04-24T06:21:57;3.50;;;0.82;;
51467;SDS011;37545;45.302;-122.946;2023-04-24T06:24:27;2.80;;;1.23;;
51467;SDS011;37545;45.302;-122.946;2023-04-24T06:26:56;2.67;;;1.05;;
51467;SDS011;37545;45.302;-122.946;2023-04-24T06:29:25;5.43;;;1.20;;
51467;SDS011;37545;45.302;-122.946;2023-04-24T06:31:54;3.17;;;1.27;;
51467;SDS011;37545;45.302;-122.946;2023-04-24T06:34:24;3.50;;;1.23;;
51467;SDS011;37545;45.302;-122.946;2023-04-24T06:36:53;1.52;;;0.95;;
51467;SDS011;37545;45.302;-122.946;2023-04-24T06:39:22;1.77;;;0.90;;
51467;SDS011;37545;45.302;-122.946;2023-04-24T06:41:51;1.98;;;0.93;;
51467;SDS011;37545;45.302;-122.946;2023-04-24T06:44:19;2.33;;;0.90;;
51467;SDS011;37545;45.302;-122.946;2023-04-24T06:46:48;4.75;;;1.45;;
51467;SDS011;37545;45.302;-122.946;2023-04-24T06:49:16;4.32;;;1.10;;
51467;SDS011;37545;45.302;-122.946;2023-04-24T06:51:47;4.72;;;0.98;;
51467;SDS011;37545;45.302;-122.946;2023-04-24T06:54:16;5.43;;;0.93;;
51467;SDS011;37545;45.302;-122.946;2023-04-24T06:56:44;2.10;;;0.70;;
51467;SDS011;37545;45.302;-122.946;2023-04-24T06:59:14;3.03;;;1.13;;
51467;SDS011;37545;45.302;-122.946;2023-04-24T07:01:43;2.80;;;0.80;;
51467;SDS011;37545;45.302;-122.946;2023-04-24T07:04:11;3.30;;;1.35;;
51467;SDS011;37545;45.302;-122.946;2023-04-24T07:06:40;2.55;;;0.73;;
51467;SDS011;37545;45.302;-122.946;2023-04-24T07:09:10;3.13;;;1.17;;
51467;SDS011;37545;45.302;-122.946;2023-04-24T07:11:39;3.13;;;0.90;;
51467;SDS011;37545;45.302;-122.946;2023-04-24T07:14:08;2.67;;;1.00;;
51467;SDS011;37545;45.302;-122.946;2023-04-24T07:16:37;4.57;;;1.10;;
51467;SDS011;37545;45.302;-122.946;2023-04-24T07:19:06;3.65;;;0.93;;
51467;SDS011;37545;45.302;-122.946;2023-04-24T07:21:34;1.27;;;0.70;;
51467;SDS011;37545;45.302;-122.946;2023-04-24T07:24:03;2.22;;;1.13;;
51467;SDS011;37545;45.302;-122.946;2023-04-24T07:26:36;5.47;;;1.48;;
51467;SDS011;37545;45.302;-122.946;2023-04-24T07:29:06;3.67;;;1.67;;
51467;SDS011;37545;45.302;-122.946;2023-04-24T07:31:35;3.60;;;1.55;;
51467;SDS011;37545;45.302;-122.946;2023-04-24T07:34:04;3.45;;;0.93;;
51467;SDS011;37545;45.302;-122.946;2023-04-24T07:36:32;3.03;;;1.13;;
51467;SDS011;37545;45.302;-122.946;2023-04-24T07:39:01;6.80;;;1.15;;
51467;SDS011;37545;45.302;-122.946;2023-04-24T07:41:30;4.80;;;1.10;;
51467;SDS011;37545;45.302;-122.946;2023-04-24T07:44:01;4.07;;;0.88;;
51467;SDS011;37545;45.302;-122.946;2023-04-24T07:46:29;1.05;;;0.68;;
51467;SDS011;37545;45.302;-122.946;2023-04-24T07:48:58;1.02;;;0.50;;
51467;SDS011;37545;45.302;-122.946;2023-04-24T07:51:27;2.78;;;0.77;;
51467;SDS011;37545;45.302;-122.946;2023-04-24T07:53:56;0.65;;;0.45;;
51467;SDS011;37545;45.302;-122.946;2023-04-24T07:56:25;5.30;;;1.15;;
51467;SDS011;37545;45.302;-122.946;2023-04-24T07:58:56;1.70;;;0.55;;
51467;SDS011;37545;45.302;-122.946;2023-04-24T08:01:27;1.42;;;0.80;;
51467;SDS011;37545;45.302;-122.946;2023-04-24T08:04:03;1.05;;;0.50;;
51467;SDS011;37545;45.302;-122.946;2023-04-24T08:06:32;4.45;;;0.77;;
51467;SDS011;37545;45.302;-122.946;2023-04-24T08:09:01;3.08;;;0.80;;
51467;SDS011;37545;45.302;-122.946;2023-04-24T08:11:30;1.45;;;0.63;;
51467;SDS011;37545;45.302;-122.946;2023-04-24T08:13:59;2.15;;;0.50;;
51467;SDS011;37545;45.302;-122.946;2023-04-24T08:16:29;2.53;;;0.57;;
51467;SDS011;37545;45.302;-122.946;2023-04-24T08:18:59;0.63;;;0.57;;
51467;SDS011;37545;45.302;-122.946;2023-04-24T08:21:28;8.65;;;0.85;;
51467;SDS011;37545;45.302;-122.946;2023-04-24T08:23:57;4.53;;;0.70;;
51467;SDS011;37545;45.302;-122.946;2023-04-24T08:26:26;2.13;;;0.60;;
51467;SDS011;37545;45.302;-122.946;2023-04-24T08:28:55;6.07;;;1.05;;
51467;SDS011;37545;45.302;-122.946;2023-04-24T08:31:23;1.33;;;0.57;;
51467;SDS011;37545;45.302;-122.946;2023-04-24T08:33:54;3.55;;;0.90;;
51467;SDS011;37545;45.302;-122.946;2023-04-24T08:36:22;3.90;;;0.88;;
51467;SDS011;37545;45.302;-122.946;2023-04-24T08:38:51;1.05;;;0.65;;
51467;SDS011;37545;45.302;-122.946;2023-04-24T08:41:20;3.17;;;0.70;;
51467;SDS011;37545;45.302;-122.946;2023-04-24T08:43:51;3.88;;;1.00;;
51467;SDS011;37545;45.302;-122.946;2023-04-24T08:46:20;1.40;;;0.65;;
51467;SDS011;37545;45.302;-122.946;2023-04-24T08:48:50;1.92;;;0.98;;
51467;SDS011;37545;45.302;-122.946;2023-04-24T08:51:22;1.48;;;0.60;;
51467;SDS011;37545;45.302;-122.946;2023-04-24T08:53:52;3.15;;;0.88;;
51467;SDS011;37545;45.302;-122.946;2023-04-24T08:56:22;1.85;;;0.80;;
51467;SDS011;37545;45.302;-122.946;2023-04-24T08:58:51;2.60;;;0.95;;
51467;SDS011;37545;45.302;-122.946;2023-04-24T09:01:21;3.05;;;0.90;;
51467;SDS011;37545;45.302;-122.946;2023-04-24T09:03:54;3.30;;;0.85;;
51467;SDS011;37545;45.302;-122.946;2023-04-24T09:06:23;1.48;;;0.80;;
51467;SDS011;37545;45.302;-122.946;2023-04-24T09:08:53;1.55;;;0.63;;
51467;SDS011;37545;45.302;-122.946;2023-04-24T09:11:23;4.15;;;0.98;;
51467;SDS011;37545;45.302;-122.946;2023-04-24T09:13:54;2.67;;;0.93;;
51467;SDS011;37545;45.302;-122.946;2023-04-24T09:16:23;3.85;;;1.00;;
51467;SDS011;37545;45.302;-122.946;2023-04-24T09:18:55;4.13;;;0.93;;
51467;SDS011;37545;45.302;-122.946;2023-04-24T09:21:24;0.63;;;0.38;;
51467;SDS011;37545;45.302;-122.946;2023-04-24T09:23:58;0.80;;;0.32;;
51467;SDS011;37545;45.302;-122.946;2023-04-24T09:26:29;1.45;;;0.70;;
51467;SDS011;37545;45.302;-122.946;2023-04-24T09:29:01;3.25;;;0.50;;
51467;SDS011;37545;45.302;-122.946;2023-04-24T09:31:31;2.45;;;0.43;;
51467;SDS011;37545;45.302;-122.946;2023-04-24T09:34:03;2.83;;;0.57;;
51467;SDS011;37545;45.302;-122.946;2023-04-24T09:36:33;2.58;;;0.60;;
51467;SDS011;37545;45.302;-122.946;2023-04-24T09:39:03;0.77;;;0.40;;
51467;SDS011;37545;45.302;-122.946;2023-04-24T09:41:33;3.78;;;0.82;;
51467;SDS011;37545;45.302;-122.946;2023-04-24T09:44:10;0.82;;;0.40;;
51467;SDS011;37545;45.302;-122.946;2023-04-24T09:46:41;2.30;;;0.47;;
51467;SDS011;37545;45.302;-122.946;2023-04-24T09:49:12;1.55;;;0.40;;
51467;SDS011;37545;45.302;-122.946;2023-04-24T09:51:42;1.05;;;0.52;;
51467;SDS011;37545;45.302;-122.946;2023-04-24T09:54:13;4.15;;;0.80;;
51467;SDS011;37545;45.302;-122.946;2023-04-24T09:56:43;0.70;;;0.40;;
51467;SDS011;37545;45.302;-122.946;2023-04-24T09:59:13;2.33;;;0.70;;
51467;SDS011;37545;45.302;-122.946;2023-04-24T10:01:43;1.45;;;0.60;;
51467;SDS011;37545;45.302;-122.946;2023-04-24T10:04:17;1.13;;;0.40;;
51467;SDS011;37545;45.302;-122.946;2023-04-24T10:06:46;1.75;;;1.10;;
51467;SDS011;37545;45.302;-122.946;2023-04-24T10:09:17;1.98;;;0.77;;
51467;SDS011;37545;45.302;-122.946;2023-04-24T10:11:47;1.67;;;0.50;;
51467;SDS011;37545;45.302;-122.946;2023-04-24T10:14:23;3.13;;;0.93;;
51467;SDS011;37545;45.302;-122.946;2023-04-24T10:16:53;2.05;;;0.47;;
51467;SDS011;37545;45.302;-122.946;2023-04-24T10:19:26;0.77;;;0.40;;
51467;SDS011;37545;45.302;-122.946;2023-04-24T10:21:54;6.28;;;0.70;;
51467;SDS011;37545;45.302;-122.946;2023-04-24T10:24:24;1.33;;;0.55;;
51467;SDS011;37545;45.302;-122.946;2023-04-24T10:26:53;0.82;;;0.28;;
51467;SDS011;37545;45.302;-122.946;2023-04-24T10:29:22;2.97;;;0.45;;
51467;SDS011;37545;45.302;-122.946;2023-04-24T10:31:52;6.10;;;0.55;;
51467;SDS011;37545;45.302;-122.946;2023-04-24T10:34:20;1.75;;;0.20;;
51467;SDS011;37545;45.302;-122.946;2023-04-24T10:36:52;0.47;;;0.30;;
51467;SDS011;37545;45.302;-122.946;2023-04-24T10:39:23;2.90;;;0.60;;
51467;SDS011;37545;45.302;-122.946;2023-04-24T10:41:52;2.28;;;0.30;;
51467;SDS011;37545;45.302;-122.946;2023-04-24T10:44:22;0.77;;;0.40;;
51467;SDS011;37545;45.302;-122.946;2023-04-24T10:46:53;0.98;;;0.57;;
51467;SDS011;37545;45.302;-122.946;2023-04-24T10:49:27;2.60;;;0.50;;
51467;SDS011;37545;45.302;-122.946;2023-04-24T10:52:01;0.85;;;0.25;;
51467;SDS011;37545;45.302;-122.946;2023-04-24T10:54:34;0.75;;;0.25;;
51467;SDS011;37545;45.302;-122.946;2023-04-24T11:00:12;1.33;;;0.30;;
51467;SDS011;37545;45.302;-122.946;2023-04-24T11:02:42;1.02;;;0.35;;
51467;SDS011;37545;45.302;-122.946;2023-04-24T11:05:19;2.75;;;0.43;;
51467;SDS011;37545;45.302;-122.946;2023-04-24T11:10:40;2.10;;;0.35;;
51467;SDS011;37545;45.302;-122.946;2023-04-24T11:13:14;0.10;;;0.10;;
51467;SDS011;37545;45.302;-122.946;2023-04-24T11:15:43;1.00;;;0.37;;
51467;SDS011;37545;45.302;-122.946;2023-04-24T11:18:13;0.80;;;0.40;;
51467;SDS011;37545;45.302;-122.946;2023-04-24T11:20:43;1.45;;;0.32;;
51467;SDS011;37545;45.302;-122.946;2023-04-24T11:23:13;1.73;;;0.40;;
51467;SDS011;37545;45.302;-122.946;2023-04-24T11:25:43;1.15;;;0.30;;
51467;SDS011;37545;45.302;-122.946;2023-04-24T11:28:14;0.63;;;0.40;;
51467;SDS011;37545;45.302;-122.946;2023-04-24T11:30:43;1.50;;;0.50;;
51467;SDS011;37545;45.302;-122.946;2023-04-24T11:33:12;0.60;;;0.30;;
51467;SDS011;37545;45.302;-122.946;2023-04-24T11:35:48;2.13;;;0.45;;
51467;SDS011;37545;45.302;-122.946;2023-04-24T11:38:21;2.30;;;1.02;;
51467;SDS011;37545;45.302;-122.946;2023-04-24T11:40:49;0.90;;;0.50;;
51467;SDS011;37545;45.302;-122.946;2023-04-24T11:43:19;0.98;;;0.32;;
51467;SDS011;37545;45.302;-122.946;2023-04-24T11:45:48;3.05;;;0.55;;
51467;SDS011;37545;45.302;-122.946;2023-04-24T11:48:18;1.27;;;0.28;;
51467;SDS011;37545;45.302;-122.946;2023-04-24T11:50:48;1.17;;;0.50;;
51467;SDS011;37545;45.302;-122.946;2023-04-24T11:53:18;0.93;;;0.20;;
51467;SDS011;37545;45.302;-122.946;2023-04-24T11:55:49;3.45;;;0.20;;
51467;SDS011;37545;45.302;-122.946;2023-04-24T11:58:20;0.15;;;0.05;;
51467;SDS011;37545;45.302;-122.946;2023-04-24T12:00:55;1.60;;;0.40;;
51467;SDS011;37545;45.302;-122.946;2023-04-24T12:03:25;2.40;;;0.40;;
51467;SDS011;37545;45.302;-122.946;2023-04-24T12:05:59;3.53;;;0.50;;
51467;SDS011;37545;45.302;-122.946;2023-04-24T12:08:35;0.20;;;0.10;;
51467;SDS011;37545;45.302;-122.946;2023-04-24T12:11:04;1.55;;;0.30;;
51467;SDS011;37545;45.302;-122.946;2023-04-24T12:13:34;1.08;;;0.32;;
51467;SDS011;37545;45.302;-122.946;2023-04-24T12:16:03;1.90;;;0.40;;
51467;SDS011;37545;45.302;-122.946;2023-04-24T12:18:32;0.17;;;0.17;;
51467;SDS011;37545;45.302;-122.946;2023-04-24T12:21:17;1.20;;;0.20;;
51467;SDS011;37545;45.302;-122.946;2023-04-24T12:23:48;0.20;;;0.10;;
51467;SDS011;37545;45.302;-122.946;2023-04-24T12:26:18;2.13;;;0.40;;
51467;SDS011;37545;45.302;-122.946;2023-04-24T12:28:48;1.30;;;0.22;;
51467;SDS011;37545;45.302;-122.946;2023-04-24T12:31:17;3.35;;;0.40;;
51467;SDS011;37545;45.302;-122.946;2023-04-24T12:33:48;2.10;;;0.40;;
51467;SDS011;37545;45.302;-122.946;2023-04-24T12:36:16;0.85;;;0.20;;
51467;SDS011;37545;45.302;-122.946;2023-04-24T12:38:45;4.15;;;0.57;;
51467;SDS011;37545;45.302;-122.946;2023-04-24T12:41:21;0.50;;;0.20;;
51467;SDS011;37545;45.302;-122.946;2023-04-24T12:43:51;3.90;;;0.28;;
51467;SDS011;37545;45.302;-122.946;2023-04-24T12:46:21;1.05;;;0.22;;
51467;SDS011;37545;45.302;-122.946;2023-04-24T12:48:49;3.63;;;0.55;;
51467;SDS011;37545;45.302;-122.946;2023-04-24T12:51:18;1.13;;;0.40;;
51467;SDS011;37545;45.302;-122.946;2023-04-24T12:53:47;3.60;;;0.50;;
51467;SDS011;37545;45.302;-122.946;2023-04-24T12:56:17;0.17;;;0.10;;
51467;SDS011;37545;45.302;-122.946;2023-04-24T12:58:47;1.00;;;0.45;;
51467;SDS011;37545;45.302;-122.946;2023-04-24T13:01:17;2.50;;;0.55;;
51467;SDS011;37545;45.302;-122.946;2023-04-24T13:03:46;0.60;;;0.43;;
51467;SDS011;37545;45.302;-122.946;2023-04-24T13:06:15;0.80;;;0.50;;
51467;SDS011;37545;45.302;-122.946;2023-04-24T13:08:44;2.53;;;0.20;;
51467;SDS011;37545;45.302;-122.946;2023-04-24T13:11:13;1.55;;;0.25;;
51467;SDS011;37545;45.302;-122.946;2023-04-24T13:13:42;0.82;;;0.22;;
51467;SDS011;37545;45.302;-122.946;2023-04-24T13:16:13;0.25;;;0.17;;
51467;SDS011;37545;45.302;-122.946;2023-04-24T13:18:41;1.27;;;0.30;;
51467;SDS011;37545;45.302;-122.946;2023-04-24T13:21:10;3.40;;;0.47;;
51467;SDS011;37545;45.302;-122.946;2023-04-24T13:23:39;0.32;;;0.20;;
51467;SDS011;37545;45.302;-122.946;2023-04-24T13:26:08;1.58;;;0.30;;
51467;SDS011;37545;45.302;-122.946;2023-04-24T13:28:37;0.98;;;0.30;;
51467;SDS011;37545;45.302;-122.946;2023-04-24T13:31:06;4.03;;;0.75;;
51467;SDS011;37545;45.302;-122.946;2023-04-24T13:33:36;2.85;;;0.30;;
51467;SDS011;37545;45.302;-122.946;2023-04-24T13:36:05;1.23;;;0.40;;
51467;SDS011;37545;45.302;-122.946;2023-04-24T13:38:34;0.40;;;0.20;;
51467;SDS011;37545;45.302;-122.946;2023-04-24T13:41:03;3.17;;;0.20;;
51467;SDS011;37545;45.302;-122.946;2023-04-24T13:43:32;1.55;;;0.30;;
51467;SDS011;37545;45.302;-122.946;2023-04-24T13:46:00;2.03;;;0.35;;
51467;SDS011;37545;45.302;-122.946;2023-04-24T13:48:29;0.98;;;0.25;;
51467;SDS011;37545;45.302;-122.946;2023-04-24T13:50:59;0.43;;;0.43;;
51467;SDS011;37545;45.302;-122.946;2023-04-24T13:53:31;1.45;;;1.05;;
51467;SDS011;37545;45.302;-122.946;2023-04-24T13:56:04;3.28;;;0.38;;
51467;SDS011;37545;45.302;-122.946;2023-04-24T13:58:33;0.32;;;0.30;;
51467;SDS011;37545;45.302;-122.946;2023-04-24T14:01:02;1.48;;;0.57;;
51467;SDS011;37545;45.302;-122.946;2023-04-24T14:03:32;1.52;;;0.82;;
51467;SDS011;37545;45.302;-122.946;2023-04-24T14:06:03;0.50;;;0.10;;
51467;SDS011;37545;45.302;-122.946;2023-04-24T14:08:32;0.60;;;0.10;;
51467;SDS011;37545;45.302;-122.946;2023-04-24T14:11:00;1.13;;;0.45;;
51467;SDS011;37545;45.302;-122.946;2023-04-24T14:13:30;1.08;;;0.20;;
51467;SDS011;37545;45.302;-122.946;2023-04-24T14:15:58;0.10;;;0.10;;
51467;SDS011;37545;45.302;-122.946;2023-04-24T14:18:27;0.20;;;0.10;;
51467;SDS011;37545;45.302;-122.946;2023-04-24T14:20:56;1.15;;;0.30;;
51467;SDS011;37545;45.302;-122.946;2023-04-24T14:23:26;3.83;;;0.57;;
51467;SDS011;37545;45.302;-122.946;2023-04-24T14:25:55;0.90;;;0.25;;
51467;SDS011;37545;45.302;-122.946;2023-04-24T14:28:24;4.60;;;0.30;;